sensor_id;sensor_type;location;lat;lon;timestamp;temperature;humidity
61255;DHT22;47128;47.530;8.584;2022-10-16T00:01:48;13.20;99.90
61255;DHT22;47128;47.530;8.584;2022-10-16T00:04:14;13.10;99.90
61255;DHT22;47128;47.530;8.584;2022-10-16T00:06:39;13.10;99.90
61255;DHT22;47128;47.530;8.584;2022-10-16T00:09:06;13.20;99.90
61255;DHT22;47128;47.530;8.584;2022-10-16T00:11:34;13.20;99.90
61255;DHT22;47128;47.530;8.584;2022-10-16T00:14:04;13.20;99.90
61255;DHT22;47128;47.530;8.584;2022-10-16T00:16:31;13.20;99.90
61255;DHT22;47128;47.530;8.584;2022-10-16T00:18:57;13.20;99.90
61255;DHT22;47128;47.530;8.584;2022-10-16T00:21:25;13.20;99.90
61255;DHT22;47128;47.530;8.584;2022-10-16T00:23:58;13.20;99.90
61255;DHT22;47128;47.530;8.584;2022-10-16T00:26:29;13.30;99.90
61255;DHT22;47128;47.530;8.584;2022-10-16T00:28:55;13.30;99.90
61255;DHT22;47128;47.530;8.584;2022-10-16T00:31:21;13.40;99.90
61255;DHT22;47128;47.530;8.584;2022-10-16T00:33:48;13.40;99.90
61255;DHT22;47128;47.530;8.584;2022-10-16T00:36:17;13.50;99.90
61255;DHT22;47128;47.530;8.584;2022-10-16T00:38:43;13.50;99.90
61255;DHT22;47128;47.530;8.584;2022-10-16T00:41:15;13.50;99.90
61255;DHT22;47128;47.530;8.584;2022-10-16T00:43:46;13.50;99.90
61255;DHT22;47128;47.530;8.584;2022-10-16T00:49:14;13.60;99.90
61255;DHT22;47128;47.530;8.584;2022-10-16T00:51:43;13.50;99.90
61255;DHT22;47128;47.530;8.584;2022-10-16T00:54:22;13.50;99.90
61255;DHT22;47128;47.530;8.584;2022-10-16T00:56:49;13.40;99.90
61255;DHT22;47128;47.530;8.584;2022-10-16T00:59:24;13.40;99.90
61255;DHT22;47128;47.530;8.584;2022-10-16T01:01:51;13.30;99.90
61255;DHT22;47128;47.530;8.584;2022-10-16T01:04:17;13.30;99.90
61255;DHT22;47128;47.530;8.584;2022-10-16T01:06:50;13.30;99.90
61255;DHT22;47128;47.530;8.584;2022-10-16T01:14:43;13.30;99.90
61255;DHT22;47128;47.530;8.584;2022-10-16T01:17:19;13.30;99.90
61255;DHT22;47128;47.530;8.584;2022-10-16T01:23:07;13.40;99.90
61255;DHT22;47128;47.530;8.584;2022-10-16T01:28:17;13.40;99.90
61255;DHT22;47128;47.530;8.584;2022-10-16T01:30:45;13.50;99.90
61255;DHT22;47128;47.530;8.584;2022-10-16T01:33:21;13.50;99.90
61255;DHT22;47128;47.530;8.584;2022-10-16T01:35:53;13.50;99.90
61255;DHT22;47128;47.530;8.584;2022-10-16T01:38:34;13.50;99.90
61255;DHT22;47128;47.530;8.584;2022-10-16T01:41:06;13.50;99.90
61255;DHT22;47128;47.530;8.584;2022-10-16T01:43:40;13.50;99.90
61255;DHT22;47128;47.530;8.584;2022-10-16T01:46:07;13.50;99.90
61255;DHT22;47128;47.530;8.584;2022-10-16T01:48:34;13.50;99.90
61255;DHT22;47128;47.530;8.584;2022-10-16T01:51:07;13.40;99.90
61255;DHT22;47128;47.530;8.584;2022-10-16T01:53:34;13.40;99.90
61255;DHT22;47128;47.530;8.584;2022-10-16T01:56:00;13.40;99.90
61255;DHT22;47128;47.530;8.584;2022-10-16T01:58:28;13.40;99.90
61255;DHT22;47128;47.530;8.584;2022-10-16T02:01:00;13.40;99.90
61255;DHT22;47128;47.530;8.584;2022-10-16T02:03:26;13.40;99.90
61255;DHT22;47128;47.530;8.584;2022-10-16T02:05:56;13.40;99.90
61255;DHT22;47128;47.530;8.584;2022-10-16T02:08:25;13.30;99.90
61255;DHT22;47128;47.530;8.584;2022-10-16T02:10:55;13.30;99.90
61255;DHT22;47128;47.530;8.584;2022-10-16T02:16:11;13.30;99.90
61255;DHT22;47128;47.530;8.584;2022-10-16T02:18:38;13.30;99.90
61255;DHT22;47128;47.530;8.584;2022-10-16T02:21:23;13.30;99.90
61255;DHT22;47128;47.530;8.584;2022-10-16T02:24:08;13.30;99.90
61255;DHT22;47128;47.530;8.584;2022-10-16T02:26:49;13.20;99.90
61255;DHT22;47128;47.530;8.584;2022-10-16T02:29:20;13.20;99.90
61255;DHT22;47128;47.530;8.584;2022-10-16T02:31:49;13.20;99.90
61255;DHT22;47128;47.530;8.584;2022-10-16T02:34:17;13.10;99.90
61255;DHT22;47128;47.530;8.584;2022-10-16T02:36:44;13.10;99.90
61255;DHT22;47128;47.530;8.584;2022-10-16T02:39:11;13.10;99.90
61255;DHT22;47128;47.530;8.584;2022-10-16T02:41:37;13.10;99.90
61255;DHT22;47128;47.530;8.584;2022-10-16T02:44:03;13.10;99.90
61255;DHT22;47128;47.530;8.584;2022-10-16T02:46:29;13.20;99.90
61255;DHT22;47128;47.530;8.584;2022-10-16T02:48:55;13.10;99.90
61255;DHT22;47128;47.530;8.584;2022-10-16T02:51:20;13.10;99.90
61255;DHT22;47128;47.530;8.584;2022-10-16T02:53:46;13.10;99.90
61255;DHT22;47128;47.530;8.584;2022-10-16T02:56:11;13.10;99.90
61255;DHT22;47128;47.530;8.584;2022-10-16T02:58:37;13.10;99.90
61255;DHT22;47128;47.530;8.584;2022-10-16T03:01:03;13.10;99.90
61255;DHT22;47128;47.530;8.584;2022-10-16T03:03:28;13.10;99.90
61255;DHT22;47128;47.530;8.584;2022-10-16T03:05:54;13.10;99.90
61255;DHT22;47128;47.530;8.584;2022-10-16T03:08:19;13.10;99.90
61255;DHT22;47128;47.530;8.584;2022-10-16T03:10:49;13.00;99.90
61255;DHT22;47128;47.530;8.584;2022-10-16T03:13:15;13.00;99.90
61255;DHT22;47128;47.530;8.584;2022-10-16T03:15:41;13.00;99.90
61255;DHT22;47128;47.530;8.584;2022-10-16T03:18:07;13.00;99.90
61255;DHT22;47128;47.530;8.584;2022-10-16T03:20:32;13.00;99.90
61255;DHT22;47128;47.530;8.584;2022-10-16T03:22:58;13.00;99.90
61255;DHT22;47128;47.530;8.584;2022-10-16T03:25:24;13.00;99.90
61255;DHT22;47128;47.530;8.584;2022-10-16T03:27:50;13.00;99.90
61255;DHT22;47128;47.530;8.584;2022-10-16T03:30:16;13.00;99.90
61255;DHT22;47128;47.530;8.584;2022-10-16T03:32:43;13.00;99.90
61255;DHT22;47128;47.530;8.584;2022-10-16T03:35:09;12.90;99.90
61255;DHT22;47128;47.530;8.584;2022-10-16T03:37:34;12.90;99.90
61255;DHT22;47128;47.530;8.584;2022-10-16T03:40:00;12.80;99.90
61255;DHT22;47128;47.530;8.584;2022-10-16T03:42:26;12.80;99.90
61255;DHT22;47128;47.530;8.584;2022-10-16T03:44:52;12.80;99.90
61255;DHT22;47128;47.530;8.584;2022-10-16T03:47:17;12.90;99.90
61255;DHT22;47128;47.530;8.584;2022-10-16T03:49:47;12.90;99.90
61255;DHT22;47128;47.530;8.584;2022-10-16T03:52:13;12.90;99.90
61255;DHT22;47128;47.530;8.584;2022-10-16T03:54:38;12.80;99.90
61255;DHT22;47128;47.530;8.584;2022-10-16T03:57:04;12.80;99.90
61255;DHT22;47128;47.530;8.584;2022-10-16T04:01:57;12.80;99.90
61255;DHT22;47128;47.530;8.584;2022-10-16T04:04:23;12.80;99.90
61255;DHT22;47128;47.530;8.584;2022-10-16T04:06:50;12.80;99.90
61255;DHT22;47128;47.530;8.584;2022-10-16T04:09:15;12.80;99.90
61255;DHT22;47128;47.530;8.584;2022-10-16T04:11:41;12.80;99.90
61255;DHT22;47128;47.530;8.584;2022-10-16T04:14:07;12.90;99.90
61255;DHT22;47128;47.530;8.584;2022-10-16T04:16:32;12.90;99.90
61255;DHT22;47128;47.530;8.584;2022-10-16T04:18:58;12.90;99.90
61255;DHT22;47128;47.530;8.584;2022-10-16T04:21:23;12.90;99.90
61255;DHT22;47128;47.530;8.584;2022-10-16T04:23:49;12.90;99.90
61255;DHT22;47128;47.530;8.584;2022-10-16T04:26:15;12.90;99.90
61255;DHT22;47128;47.530;8.584;2022-10-16T04:28:41;12.90;99.90
61255;DHT22;47128;47.530;8.584;2022-10-16T04:31:07;12.90;99.90
61255;DHT22;47128;47.530;8.584;2022-10-16T04:33:33;12.80;99.90
61255;DHT22;47128;47.530;8.584;2022-10-16T04:36:02;12.80;99.90
61255;DHT22;47128;47.530;8.584;2022-10-16T04:38:28;12.80;99.90
61255;DHT22;47128;47.530;8.584;2022-10-16T04:40:54;12.90;99.90
61255;DHT22;47128;47.530;8.584;2022-10-16T04:43:20;12.90;99.90
61255;DHT22;47128;47.530;8.584;2022-10-16T04:45:46;12.90;99.90
61255;DHT22;47128;47.530;8.584;2022-10-16T04:48:12;12.90;99.90
61255;DHT22;47128;47.530;8.584;2022-10-16T04:50:37;12.90;99.90
61255;DHT22;47128;47.530;8.584;2022-10-16T04:53:03;12.90;99.90
61255;DHT22;47128;47.530;8.584;2022-10-16T04:55:32;13.00;99.90
61255;DHT22;47128;47.530;8.584;2022-10-16T04:57:59;13.00;99.90
61255;DHT22;47128;47.530;8.584;2022-10-16T05:00:25;13.00;99.90
61255;DHT22;47128;47.530;8.584;2022-10-16T05:02:51;12.90;99.90
61255;DHT22;47128;47.530;8.584;2022-10-16T05:05:17;12.90;99.90
61255;DHT22;47128;47.530;8.584;2022-10-16T05:07:45;12.90;99.90
61255;DHT22;47128;47.530;8.584;2022-10-16T05:10:11;12.80;99.90
61255;DHT22;47128;47.530;8.584;2022-10-16T05:12:36;12.80;99.90
61255;DHT22;47128;47.530;8.584;2022-10-16T05:15:02;12.80;99.90
61255;DHT22;47128;47.530;8.584;2022-10-16T05:17:28;12.80;99.90
61255;DHT22;47128;47.530;8.584;2022-10-16T05:19:53;12.80;99.90
61255;DHT22;47128;47.530;8.584;2022-10-16T05:22:19;12.70;99.90
61255;DHT22;47128;47.530;8.584;2022-10-16T05:25:02;12.70;99.90
61255;DHT22;47128;47.530;8.584;2022-10-16T05:27:28;12.80;99.90
61255;DHT22;47128;47.530;8.584;2022-10-16T05:29:53;12.80;99.90
61255;DHT22;47128;47.530;8.584;2022-10-16T05:32:19;12.80;99.90
61255;DHT22;47128;47.530;8.584;2022-10-16T05:34:45;12.80;99.90
61255;DHT22;47128;47.530;8.584;2022-10-16T05:37:11;12.80;99.90
61255;DHT22;47128;47.530;8.584;2022-10-16T05:39:38;12.80;99.90
61255;DHT22;47128;47.530;8.584;2022-10-16T05:42:04;12.80;99.90
61255;DHT22;47128;47.530;8.584;2022-10-16T05:44:30;12.80;99.90
61255;DHT22;47128;47.530;8.584;2022-10-16T05:46:56;12.80;99.90
61255;DHT22;47128;47.530;8.584;2022-10-16T05:49:21;12.80;99.90
61255;DHT22;47128;47.530;8.584;2022-10-16T05:51:47;12.80;99.90
61255;DHT22;47128;47.530;8.584;2022-10-16T05:54:13;12.80;99.90
61255;DHT22;47128;47.530;8.584;2022-10-16T05:56:38;12.70;99.90
61255;DHT22;47128;47.530;8.584;2022-10-16T05:59:05;12.60;99.90
61255;DHT22;47128;47.530;8.584;2022-10-16T06:01:31;12.50;99.90
61255;DHT22;47128;47.530;8.584;2022-10-16T06:03:57;12.50;99.90
61255;DHT22;47128;47.530;8.584;2022-10-16T06:06:24;12.50;99.90
61255;DHT22;47128;47.530;8.584;2022-10-16T06:08:54;12.50;99.90
61255;DHT22;47128;47.530;8.584;2022-10-16T06:11:26;12.40;99.90
61255;DHT22;47128;47.530;8.584;2022-10-16T06:13:54;12.50;99.90
61255;DHT22;47128;47.530;8.584;2022-10-16T06:16:22;12.50;99.90
61255;DHT22;47128;47.530;8.584;2022-10-16T06:18:50;12.60;99.90
61255;DHT22;47128;47.530;8.584;2022-10-16T06:21:23;12.70;99.90
61255;DHT22;47128;47.530;8.584;2022-10-16T06:23:50;12.70;99.90
61255;DHT22;47128;47.530;8.584;2022-10-16T06:26:18;12.80;99.90
61255;DHT22;47128;47.530;8.584;2022-10-16T06:28:45;12.80;99.90
61255;DHT22;47128;47.530;8.584;2022-10-16T06:31:11;12.90;99.90
61255;DHT22;47128;47.530;8.584;2022-10-16T06:33:38;12.80;99.90
61255;DHT22;47128;47.530;8.584;2022-10-16T06:36:12;12.90;99.90
61255;DHT22;47128;47.530;8.584;2022-10-16T06:38:38;13.00;99.90
61255;DHT22;47128;47.530;8.584;2022-10-16T06:41:04;13.10;99.90
61255;DHT22;47128;47.530;8.584;2022-10-16T06:43:31;13.10;99.90
61255;DHT22;47128;47.530;8.584;2022-10-16T06:45:58;13.10;99.90
61255;DHT22;47128;47.530;8.584;2022-10-16T06:48:25;13.10;99.90
61255;DHT22;47128;47.530;8.584;2022-10-16T06:51:12;13.10;99.90
61255;DHT22;47128;47.530;8.584;2022-10-16T06:53:41;13.20;99.90
61255;DHT22;47128;47.530;8.584;2022-10-16T06:56:16;13.30;99.90
61255;DHT22;47128;47.530;8.584;2022-10-16T06:58:42;13.30;99.90
61255;DHT22;47128;47.530;8.584;2022-10-16T07:01:08;13.20;99.90
61255;DHT22;47128;47.530;8.584;2022-10-16T07:03:36;13.20;99.90
61255;DHT22;47128;47.530;8.584;2022-10-16T07:06:04;13.20;99.90
61255;DHT22;47128;47.530;8.584;2022-10-16T07:08:31;13.20;99.90
61255;DHT22;47128;47.530;8.584;2022-10-16T07:11:02;13.20;99.90
61255;DHT22;47128;47.530;8.584;2022-10-16T07:13:28;13.10;99.90
61255;DHT22;47128;47.530;8.584;2022-10-16T07:15:53;13.10;99.90
61255;DHT22;47128;47.530;8.584;2022-10-16T07:18:19;13.10;99.90
61255;DHT22;47128;47.530;8.584;2022-10-16T07:20:45;13.10;99.90
61255;DHT22;47128;47.530;8.584;2022-10-16T07:23:10;13.10;99.90
61255;DHT22;47128;47.530;8.584;2022-10-16T07:25:36;13.10;99.90
61255;DHT22;47128;47.530;8.584;2022-10-16T07:28:01;13.20;99.90
61255;DHT22;47128;47.530;8.584;2022-10-16T07:30:27;13.30;99.90
61255;DHT22;47128;47.530;8.584;2022-10-16T07:32:53;13.30;99.90
61255;DHT22;47128;47.530;8.584;2022-10-16T07:35:19;13.40;99.90
61255;DHT22;47128;47.530;8.584;2022-10-16T07:37:45;13.40;99.90
61255;DHT22;47128;47.530;8.584;2022-10-16T07:40:11;13.40;99.90
61255;DHT22;47128;47.530;8.584;2022-10-16T07:42:37;13.50;99.90
61255;DHT22;47128;47.530;8.584;2022-10-16T07:45:03;13.50;99.90
61255;DHT22;47128;47.530;8.584;2022-10-16T07:47:29;13.60;99.90
61255;DHT22;47128;47.530;8.584;2022-10-16T07:49:54;13.70;99.90
61255;DHT22;47128;47.530;8.584;2022-10-16T07:52:20;13.70;99.90
61255;DHT22;47128;47.530;8.584;2022-10-16T07:54:46;13.80;99.90
61255;DHT22;47128;47.530;8.584;2022-10-16T07:57:11;13.80;99.90
61255;DHT22;47128;47.530;8.584;2022-10-16T07:59:37;13.80;99.90
61255;DHT22;47128;47.530;8.584;2022-10-16T08:02:03;13.80;99.90
61255;DHT22;47128;47.530;8.584;2022-10-16T08:04:28;13.90;99.90
61255;DHT22;47128;47.530;8.584;2022-10-16T08:06:54;14.00;99.90
61255;DHT22;47128;47.530;8.584;2022-10-16T08:09:20;14.20;99.90
61255;DHT22;47128;47.530;8.584;2022-10-16T08:11:45;14.30;99.90
61255;DHT22;47128;47.530;8.584;2022-10-16T08:14:12;14.40;99.90
61255;DHT22;47128;47.530;8.584;2022-10-16T08:16:38;14.50;99.90
61255;DHT22;47128;47.530;8.584;2022-10-16T08:19:04;14.50;99.90
61255;DHT22;47128;47.530;8.584;2022-10-16T08:21:29;14.60;99.90
61255;DHT22;47128;47.530;8.584;2022-10-16T08:23:55;14.50;99.90
61255;DHT22;47128;47.530;8.584;2022-10-16T08:26:21;14.50;99.90
61255;DHT22;47128;47.530;8.584;2022-10-16T08:28:49;14.60;99.90
61255;DHT22;47128;47.530;8.584;2022-10-16T08:31:16;14.70;99.90
61255;DHT22;47128;47.530;8.584;2022-10-16T08:33:45;14.80;99.90
61255;DHT22;47128;47.530;8.584;2022-10-16T08:36:12;14.80;99.90
61255;DHT22;47128;47.530;8.584;2022-10-16T08:38:39;15.00;99.90
61255;DHT22;47128;47.530;8.584;2022-10-16T08:49:26;15.50;99.90
61255;DHT22;47128;47.530;8.584;2022-10-16T08:51:53;15.80;99.90
61255;DHT22;47128;47.530;8.584;2022-10-16T08:54:37;16.40;99.90
61255;DHT22;47128;47.530;8.584;2022-10-16T08:57:12;17.00;99.90
61255;DHT22;47128;47.530;8.584;2022-10-16T08:59:39;17.40;99.90
61255;DHT22;47128;47.530;8.584;2022-10-16T09:02:22;18.10;99.90
61255;DHT22;47128;47.530;8.584;2022-10-16T09:07:38;19.00;99.90
61255;DHT22;47128;47.530;8.584;2022-10-16T09:10:14;18.90;99.90
61255;DHT22;47128;47.530;8.584;2022-10-16T09:15:51;18.60;99.90
61255;DHT22;47128;47.530;8.584;2022-10-16T09:18:39;18.70;99.90
61255;DHT22;47128;47.530;8.584;2022-10-16T09:21:18;18.90;99.90
61255;DHT22;47128;47.530;8.584;2022-10-16T09:23:45;19.20;99.90
61255;DHT22;47128;47.530;8.584;2022-10-16T09:26:13;19.30;99.90
61255;DHT22;47128;47.530;8.584;2022-10-16T09:28:39;19.60;99.90
61255;DHT22;47128;47.530;8.584;2022-10-16T09:31:05;19.50;99.90
61255;DHT22;47128;47.530;8.584;2022-10-16T09:33:36;19.30;99.90
61255;DHT22;47128;47.530;8.584;2022-10-16T09:36:05;19.50;99.90
61255;DHT22;47128;47.530;8.584;2022-10-16T09:38:34;19.60;99.90
61255;DHT22;47128;47.530;8.584;2022-10-16T09:41:04;19.90;99.90
61255;DHT22;47128;47.530;8.584;2022-10-16T09:43:54;20.00;99.90
61255;DHT22;47128;47.530;8.584;2022-10-16T09:46:28;20.30;99.90
61255;DHT22;47128;47.530;8.584;2022-10-16T09:49:03;20.40;99.90
61255;DHT22;47128;47.530;8.584;2022-10-16T09:51:32;20.40;99.90
61255;DHT22;47128;47.530;8.584;2022-10-16T09:54:11;20.50;99.90
61255;DHT22;47128;47.530;8.584;2022-10-16T09:56:38;20.70;99.90
61255;DHT22;47128;47.530;8.584;2022-10-16T09:59:15;21.00;99.40
61255;DHT22;47128;47.530;8.584;2022-10-16T10:04:14;21.60;98.00
61255;DHT22;47128;47.530;8.584;2022-10-16T10:09:31;22.00;97.40
61255;DHT22;47128;47.530;8.584;2022-10-16T10:11:59;22.20;96.60
61255;DHT22;47128;47.530;8.584;2022-10-16T10:14:38;22.30;96.50
61255;DHT22;47128;47.530;8.584;2022-10-16T10:22:41;22.10;96.60
61255;DHT22;47128;47.530;8.584;2022-10-16T10:28:05;22.90;95.50
61255;DHT22;47128;47.530;8.584;2022-10-16T10:30:44;23.20;95.20
61255;DHT22;47128;47.530;8.584;2022-10-16T10:33:38;23.40;95.10
61255;DHT22;47128;47.530;8.584;2022-10-16T10:39:02;23.10;95.30
61255;DHT22;47128;47.530;8.584;2022-10-16T10:47:45;23.90;93.90
61255;DHT22;47128;47.530;8.584;2022-10-16T11:07:15;25.90;89.60
61255;DHT22;47128;47.530;8.584;2022-10-16T11:09:52;25.20;90.30
61255;DHT22;47128;47.530;8.584;2022-10-16T11:12:20;24.40;91.20
61255;DHT22;47128;47.530;8.584;2022-10-16T11:15:07;23.60;92.50
61255;DHT22;47128;47.530;8.584;2022-10-16T11:17:43;23.20;93.50
61255;DHT22;47128;47.530;8.584;2022-10-16T11:20:33;23.40;93.20
61255;DHT22;47128;47.530;8.584;2022-10-16T11:23:16;23.70;92.80
61255;DHT22;47128;47.530;8.584;2022-10-16T11:25:45;24.30;92.20
61255;DHT22;47128;47.530;8.584;2022-10-16T11:36:18;25.90;91.10
61255;DHT22;47128;47.530;8.584;2022-10-16T11:42:11;26.30;90.10
61255;DHT22;47128;47.530;8.584;2022-10-16T11:48:15;27.40;86.70
61255;DHT22;47128;47.530;8.584;2022-10-16T11:53:45;26.70;87.90
61255;DHT22;47128;47.530;8.584;2022-10-16T11:56:17;27.00;88.30
61255;DHT22;47128;47.530;8.584;2022-10-16T11:59:02;28.20;85.50
61255;DHT22;47128;47.530;8.584;2022-10-16T12:01:36;29.20;83.60
61255;DHT22;47128;47.530;8.584;2022-10-16T12:09:27;28.50;81.60
61255;DHT22;47128;47.530;8.584;2022-10-16T12:11:54;28.70;82.20
61255;DHT22;47128;47.530;8.584;2022-10-16T12:14:32;28.30;81.70
61255;DHT22;47128;47.530;8.584;2022-10-16T12:17:25;28.00;82.20
61255;DHT22;47128;47.530;8.584;2022-10-16T12:20:00;30.80;76.90
61255;DHT22;47128;47.530;8.584;2022-10-16T12:22:29;31.00;76.90
61255;DHT22;47128;47.530;8.584;2022-10-16T12:24:56;32.10;74.80
61255;DHT22;47128;47.530;8.584;2022-10-16T12:27:30;32.60;72.50
61255;DHT22;47128;47.530;8.584;2022-10-16T12:30:00;32.40;71.00
61255;DHT22;47128;47.530;8.584;2022-10-16T12:32:34;32.60;70.30
61255;DHT22;47128;47.530;8.584;2022-10-16T12:35:01;32.00;70.40
61255;DHT22;47128;47.530;8.584;2022-10-16T12:37:32;31.70;69.80
61255;DHT22;47128;47.530;8.584;2022-10-16T12:39:59;30.90;71.00
61255;DHT22;47128;47.530;8.584;2022-10-16T12:42:36;29.90;72.00
61255;DHT22;47128;47.530;8.584;2022-10-16T12:45:34;28.80;72.20
61255;DHT22;47128;47.530;8.584;2022-10-16T12:48:17;27.80;75.10
61255;DHT22;47128;47.530;8.584;2022-10-16T12:50:44;27.00;77.70
61255;DHT22;47128;47.530;8.584;2022-10-16T12:53:21;26.70;74.90
61255;DHT22;47128;47.530;8.584;2022-10-16T12:58:43;26.10;79.40
61255;DHT22;47128;47.530;8.584;2022-10-16T13:01:25;25.80;77.80
61255;DHT22;47128;47.530;8.584;2022-10-16T13:07:37;25.20;82.30
61255;DHT22;47128;47.530;8.584;2022-10-16T13:10:40;25.60;81.50
61255;DHT22;47128;47.530;8.584;2022-10-16T13:18:36;25.90;80.80
61255;DHT22;47128;47.530;8.584;2022-10-16T13:24:32;25.80;80.50
61255;DHT22;47128;47.530;8.584;2022-10-16T13:27:07;25.70;81.70
61255;DHT22;47128;47.530;8.584;2022-10-16T13:29:34;25.70;81.60
61255;DHT22;47128;47.530;8.584;2022-10-16T13:32:06;25.70;81.10
61255;DHT22;47128;47.530;8.584;2022-10-16T13:34:33;25.60;81.20
61255;DHT22;47128;47.530;8.584;2022-10-16T13:37:27;25.60;82.00
61255;DHT22;47128;47.530;8.584;2022-10-16T13:40:13;25.50;82.70
61255;DHT22;47128;47.530;8.584;2022-10-16T13:42:46;25.40;82.70
61255;DHT22;47128;47.530;8.584;2022-10-16T13:45:28;25.50;83.80
61255;DHT22;47128;47.530;8.584;2022-10-16T13:48:12;25.50;83.70
61255;DHT22;47128;47.530;8.584;2022-10-16T13:50:37;25.40;84.10
61255;DHT22;47128;47.530;8.584;2022-10-16T13:53:07;25.30;84.10
61255;DHT22;47128;47.530;8.584;2022-10-16T13:55:40;25.20;84.20
61255;DHT22;47128;47.530;8.584;2022-10-16T13:58:08;25.20;85.20
61255;DHT22;47128;47.530;8.584;2022-10-16T14:00:34;25.20;86.60
61255;DHT22;47128;47.530;8.584;2022-10-16T14:03:07;25.10;85.10
61255;DHT22;47128;47.530;8.584;2022-10-16T14:05:33;25.00;85.80
61255;DHT22;47128;47.530;8.584;2022-10-16T14:08:00;24.90;85.10
61255;DHT22;47128;47.530;8.584;2022-10-16T14:10:29;24.80;84.60
61255;DHT22;47128;47.530;8.584;2022-10-16T14:13:03;24.70;85.20
61255;DHT22;47128;47.530;8.584;2022-10-16T14:15:30;24.50;85.40
61255;DHT22;47128;47.530;8.584;2022-10-16T14:17:57;24.30;85.70
61255;DHT22;47128;47.530;8.584;2022-10-16T14:20:27;24.20;86.00
61255;DHT22;47128;47.530;8.584;2022-10-16T14:23:02;24.00;89.30
61255;DHT22;47128;47.530;8.584;2022-10-16T14:25:30;23.80;90.30
61255;DHT22;47128;47.530;8.584;2022-10-16T14:28:04;23.70;90.60
61255;DHT22;47128;47.530;8.584;2022-10-16T14:30:33;23.60;91.10
61255;DHT22;47128;47.530;8.584;2022-10-16T14:35:38;23.30;91.70
61255;DHT22;47128;47.530;8.584;2022-10-16T14:38:06;23.10;92.20
61255;DHT22;47128;47.530;8.584;2022-10-16T14:40:35;23.10;92.40
61255;DHT22;47128;47.530;8.584;2022-10-16T14:43:02;23.10;91.40
61255;DHT22;47128;47.530;8.584;2022-10-16T14:45:31;23.20;91.70
61255;DHT22;47128;47.530;8.584;2022-10-16T14:48:02;23.00;92.80
61255;DHT22;47128;47.530;8.584;2022-10-16T14:52:55;22.70;93.40
61255;DHT22;47128;47.530;8.584;2022-10-16T14:55:21;22.40;93.90
61255;DHT22;47128;47.530;8.584;2022-10-16T14:57:47;22.50;93.70
61255;DHT22;47128;47.530;8.584;2022-10-16T15:00:23;22.50;93.10
61255;DHT22;47128;47.530;8.584;2022-10-16T15:02:50;22.60;93.20
61255;DHT22;47128;47.530;8.584;2022-10-16T15:05:21;22.60;92.80
61255;DHT22;47128;47.530;8.584;2022-10-16T15:07:52;22.40;92.90
61255;DHT22;47128;47.530;8.584;2022-10-16T15:10:20;22.30;93.00
61255;DHT22;47128;47.530;8.584;2022-10-16T15:12:46;22.10;93.50
61255;DHT22;47128;47.530;8.584;2022-10-16T15:17:40;21.70;93.60
61255;DHT22;47128;47.530;8.584;2022-10-16T15:20:06;21.60;93.80
61255;DHT22;47128;47.530;8.584;2022-10-16T15:24:58;21.20;93.80
61255;DHT22;47128;47.530;8.584;2022-10-16T15:27:24;21.10;94.60
61255;DHT22;47128;47.530;8.584;2022-10-16T15:29:49;20.90;95.00
61255;DHT22;47128;47.530;8.584;2022-10-16T15:32:15;20.70;95.60
61255;DHT22;47128;47.530;8.584;2022-10-16T15:37:08;20.50;96.80
61255;DHT22;47128;47.530;8.584;2022-10-16T15:39:34;20.40;97.30
61255;DHT22;47128;47.530;8.584;2022-10-16T15:42:00;20.10;97.70
61255;DHT22;47128;47.530;8.584;2022-10-16T15:44:25;20.10;98.60
61255;DHT22;47128;47.530;8.584;2022-10-16T15:46:55;19.90;99.20
61255;DHT22;47128;47.530;8.584;2022-10-16T15:51:48;19.60;99.90
61255;DHT22;47128;47.530;8.584;2022-10-16T15:54:13;19.50;99.90
61255;DHT22;47128;47.530;8.584;2022-10-16T15:56:39;19.40;99.90
61255;DHT22;47128;47.530;8.584;2022-10-16T15:59:04;19.30;99.90
61255;DHT22;47128;47.530;8.584;2022-10-16T16:01:34;19.20;99.90
61255;DHT22;47128;47.530;8.584;2022-10-16T16:06:26;18.90;99.90
61255;DHT22;47128;47.530;8.584;2022-10-16T16:08:52;18.80;99.90
61255;DHT22;47128;47.530;8.584;2022-10-16T16:11:20;18.80;99.90
61255;DHT22;47128;47.530;8.584;2022-10-16T16:13:46;18.70;99.90
61255;DHT22;47128;47.530;8.584;2022-10-16T16:16:15;18.60;99.90
61255;DHT22;47128;47.530;8.584;2022-10-16T16:18:41;18.40;99.90
61255;DHT22;47128;47.530;8.584;2022-10-16T16:21:09;18.30;99.90
61255;DHT22;47128;47.530;8.584;2022-10-16T16:23:35;18.20;99.90
61255;DHT22;47128;47.530;8.584;2022-10-16T16:26:10;18.10;99.90
61255;DHT22;47128;47.530;8.584;2022-10-16T16:28:36;18.10;99.90
61255;DHT22;47128;47.530;8.584;2022-10-16T16:31:02;18.00;99.90
61255;DHT22;47128;47.530;8.584;2022-10-16T16:33:28;17.90;99.90
61255;DHT22;47128;47.530;8.584;2022-10-16T16:36:03;17.80;99.90
61255;DHT22;47128;47.530;8.584;2022-10-16T16:38:29;17.70;99.90
61255;DHT22;47128;47.530;8.584;2022-10-16T16:40:56;17.50;99.90
61255;DHT22;47128;47.530;8.584;2022-10-16T16:43:24;17.50;99.90
61255;DHT22;47128;47.530;8.584;2022-10-16T16:45:49;17.40;99.90
61255;DHT22;47128;47.530;8.584;2022-10-16T16:48:15;17.30;99.90
61255;DHT22;47128;47.530;8.584;2022-10-16T16:50:41;17.20;99.90
61255;DHT22;47128;47.530;8.584;2022-10-16T16:53:06;17.20;99.90
61255;DHT22;47128;47.530;8.584;2022-10-16T16:55:32;17.10;99.90
61255;DHT22;47128;47.530;8.584;2022-10-16T17:05:12;16.80;99.90
61255;DHT22;47128;47.530;8.584;2022-10-16T17:08:41;16.70;99.90
61255;DHT22;47128;47.530;8.584;2022-10-16T17:11:56;16.70;99.90
61255;DHT22;47128;47.530;8.584;2022-10-16T17:25:50;16.40;99.90
61255;DHT22;47128;47.530;8.584;2022-10-16T17:28:58;16.30;99.90
61255;DHT22;47128;47.530;8.584;2022-10-16T17:45:19;15.90;99.90
61255;DHT22;47128;47.530;8.584;2022-10-16T17:47:45;15.90;99.90
61255;DHT22;47128;47.530;8.584;2022-10-16T17:50:10;15.90;99.90
61255;DHT22;47128;47.530;8.584;2022-10-16T17:52:36;15.80;99.90
61255;DHT22;47128;47.530;8.584;2022-10-16T17:55:01;15.80;99.90
61255;DHT22;47128;47.530;8.584;2022-10-16T17:57:27;15.70;99.90
61255;DHT22;47128;47.530;8.584;2022-10-16T17:59:56;15.80;99.90
61255;DHT22;47128;47.530;8.584;2022-10-16T18:02:22;15.80;99.90
61255;DHT22;47128;47.530;8.584;2022-10-16T18:04:49;15.70;99.90
61255;DHT22;47128;47.530;8.584;2022-10-16T18:07:15;15.60;99.90
61255;DHT22;47128;47.530;8.584;2022-10-16T18:09:41;15.60;99.90
61255;DHT22;47128;47.530;8.584;2022-10-16T18:12:07;15.50;99.90
61255;DHT22;47128;47.530;8.584;2022-10-16T18:14:33;15.50;99.90
61255;DHT22;47128;47.530;8.584;2022-10-16T18:16:59;15.50;99.90
61255;DHT22;47128;47.530;8.584;2022-10-16T18:19:25;15.50;99.90
61255;DHT22;47128;47.530;8.584;2022-10-16T18:21:51;15.40;99.90
61255;DHT22;47128;47.530;8.584;2022-10-16T18:24:20;15.30;99.90
61255;DHT22;47128;47.530;8.584;2022-10-16T18:26:48;15.30;99.90